sensor_id;sensor_type;location;lat;lon;timestamp;pressure;altitude;pressure_sealevel;temperature;humidity
54870;BME280;40756;-37.950;145.008;2022-09-21T00:01:43;101225.79;;;19.08;40.10
54870;BME280;40756;-37.950;145.008;2022-09-21T00:04:13;101232.11;;;18.99;40.83
54870;BME280;40756;-37.950;145.008;2022-09-21T00:06:43;101230.68;;;19.01;40.57
54870;BME280;40756;-37.950;145.008;2022-09-21T00:09:13;101224.55;;;19.07;39.39
54870;BME280;40756;-37.950;145.008;2022-09-21T00:11:42;101227.50;;;19.13;39.64
54870;BME280;40756;-37.950;145.008;2022-09-21T00:14:13;101230.11;;;19.17;40.24
54870;BME280;40756;-37.950;145.008;2022-09-21T00:16:43;101232.72;;;19.21;39.27
54870;BME280;40756;-37.950;145.008;2022-09-21T00:19:12;101234.02;;;19.24;39.54
54870;BME280;40756;-37.950;145.008;2022-09-21T00:21:42;101231.80;;;19.25;39.85
54870;BME280;40756;-37.950;145.008;2022-09-21T00:24:11;101231.71;;;19.30;41.43
54870;BME280;40756;-37.950;145.008;2022-09-21T00:26:41;101228.95;;;19.19;40.19
54870;BME280;40756;-37.950;145.008;2022-09-21T00:29:11;101227.36;;;19.59;40.47
54870;BME280;40756;-37.950;145.008;2022-09-21T00:31:40;101222.01;;;19.66;40.13
54870;BME280;40756;-37.950;145.008;2022-09-21T00:34:10;101223.34;;;19.53;39.66
54870;BME280;40756;-37.950;145.008;2022-09-21T00:36:39;101217.37;;;19.40;40.88
54870;BME280;40756;-37.950;145.008;2022-09-21T00:39:10;101218.74;;;19.99;37.94
54870;BME280;40756;-37.950;145.008;2022-09-21T00:41:39;101225.34;;;19.65;38.11
54870;BME280;40756;-37.950;145.008;2022-09-21T00:44:41;101219.61;;;20.00;39.05
54870;BME280;40756;-37.950;145.008;2022-09-21T00:47:13;101221.72;;;20.12;39.24
54870;BME280;40756;-37.950;145.008;2022-09-21T00:49:49;101217.04;;;20.04;37.90
54870;BME280;40756;-37.950;145.008;2022-09-21T00:52:23;101211.41;;;20.20;39.41
54870;BME280;40756;-37.950;145.008;2022-09-21T00:54:59;101209.25;;;20.06;37.67
54870;BME280;40756;-37.950;145.008;2022-09-21T00:57:30;101213.21;;;20.27;37.53
54870;BME280;40756;-37.950;145.008;2022-09-21T01:00:04;101208.93;;;20.19;38.10
54870;BME280;40756;-37.950;145.008;2022-09-21T01:02:36;101204.67;;;20.26;39.00
54870;BME280;40756;-37.950;145.008;2022-09-21T01:05:08;101201.87;;;19.79;38.49
54870;BME280;40756;-37.950;145.008;2022-09-21T01:07:42;101194.35;;;19.47;38.84
54870;BME280;40756;-37.950;145.008;2022-09-21T01:10:16;101190.55;;;19.72;39.39
54870;BME280;40756;-37.950;145.008;2022-09-21T01:12:58;101190.06;;;20.02;38.46
54870;BME280;40756;-37.950;145.008;2022-09-21T01:15:39;101195.68;;;19.60;39.18
54870;BME280;40756;-37.950;145.008;2022-09-21T01:18:19;101196.99;;;19.20;40.17
54870;BME280;40756;-37.950;145.008;2022-09-21T01:21:16;101198.06;;;18.63;39.83
54870;BME280;40756;-37.950;145.008;2022-09-21T01:24:34;101203.57;;;18.29;41.08
54870;BME280;40756;-37.950;145.008;2022-09-21T01:27:31;101201.93;;;18.44;41.47
54870;BME280;40756;-37.950;145.008;2022-09-21T01:30:05;101202.02;;;17.90;42.09
54870;BME280;40756;-37.950;145.008;2022-09-21T01:32:38;101207.97;;;18.33;41.28
54870;BME280;40756;-37.950;145.008;2022-09-21T01:35:14;101212.87;;;17.71;42.27
54870;BME280;40756;-37.950;145.008;2022-09-21T01:37:48;101212.29;;;18.05;42.06
54870;BME280;40756;-37.950;145.008;2022-09-21T01:40:22;101209.94;;;18.19;41.53
54870;BME280;40756;-37.950;145.008;2022-09-21T01:42:54;101207.55;;;18.31;42.69
54870;BME280;40756;-37.950;145.008;2022-09-21T01:45:29;101200.24;;;18.33;41.85
54870;BME280;40756;-37.950;145.008;2022-09-21T01:48:01;101194.73;;;18.35;42.07
54870;BME280;40756;-37.950;145.008;2022-09-21T01:50:33;101196.00;;;18.40;41.38
54870;BME280;40756;-37.950;145.008;2022-09-21T01:53:09;101190.94;;;18.59;41.38
54870;BME280;40756;-37.950;145.008;2022-09-21T01:55:43;101191.02;;;18.79;40.57
54870;BME280;40756;-37.950;145.008;2022-09-21T01:58:17;101187.39;;;18.91;40.19
54870;BME280;40756;-37.950;145.008;2022-09-21T02:00:49;101182.09;;;19.04;39.80
54870;BME280;40756;-37.950;145.008;2022-09-21T02:03:28;101180.74;;;19.14;39.13
54870;BME280;40756;-37.950;145.008;2022-09-21T02:06:02;101179.37;;;19.62;39.51
54870;BME280;40756;-37.950;145.008;2022-09-21T02:08:33;101184.24;;;19.75;39.47
54870;BME280;40756;-37.950;145.008;2022-09-21T02:11:06;101181.46;;;19.40;38.81
54870;BME280;40756;-37.950;145.008;2022-09-21T02:13:37;101174.01;;;19.94;39.52
54870;BME280;40756;-37.950;145.008;2022-09-21T02:16:23;101170.43;;;19.63;38.68
54870;BME280;40756;-37.950;145.008;2022-09-21T02:19:08;101170.16;;;19.87;39.01
54870;BME280;40756;-37.950;145.008;2022-09-21T02:21:49;101167.43;;;19.77;39.32
54870;BME280;40756;-37.950;145.008;2022-09-21T02:24:29;101161.93;;;19.89;40.47
54870;BME280;40756;-37.950;145.008;2022-09-21T02:27:05;101161.61;;;19.88;38.94
54870;BME280;40756;-37.950;145.008;2022-09-21T02:29:43;101157.68;;;19.67;39.09
54870;BME280;40756;-37.950;145.008;2022-09-21T02:32:24;101155.30;;;19.87;38.22
54870;BME280;40756;-37.950;145.008;2022-09-21T02:35:00;101151.35;;;20.01;38.10
54870;BME280;40756;-37.950;145.008;2022-09-21T02:37:36;101144.97;;;20.41;39.03
54870;BME280;40756;-37.950;145.008;2022-09-21T02:40:16;101139.90;;;20.63;38.28
54870;BME280;40756;-37.950;145.008;2022-09-21T02:42:52;101136.47;;;20.53;37.63
54870;BME280;40756;-37.950;145.008;2022-09-21T02:45:26;101136.73;;;20.29;39.14
54870;BME280;40756;-37.950;145.008;2022-09-21T02:48:02;101131.36;;;19.89;38.94
54870;BME280;40756;-37.950;145.008;2022-09-21T02:50:39;101130.99;;;20.16;38.81
54870;BME280;40756;-37.950;145.008;2022-09-21T02:53:12;101129.26;;;20.31;39.43
54870;BME280;40756;-37.950;145.008;2022-09-21T02:55:43;101130.24;;;20.39;38.62
54870;BME280;40756;-37.950;145.008;2022-09-21T02:58:15;101130.06;;;19.97;38.87
54870;BME280;40756;-37.950;145.008;2022-09-21T03:00:44;101128.31;;;19.78;40.00
54870;BME280;40756;-37.950;145.008;2022-09-21T03:03:16;101130.74;;;20.38;39.56
54870;BME280;40756;-37.950;145.008;2022-09-21T03:05:49;101130.29;;;19.80;38.70
54870;BME280;40756;-37.950;145.008;2022-09-21T03:08:20;101128.39;;;19.99;38.19
54870;BME280;40756;-37.950;145.008;2022-09-21T03:10:50;101131.72;;;20.31;38.04
54870;BME280;40756;-37.950;145.008;2022-09-21T03:13:19;101130.60;;;20.21;38.64
54870;BME280;40756;-37.950;145.008;2022-09-21T03:15:49;101130.54;;;20.17;37.98
54870;BME280;40756;-37.950;145.008;2022-09-21T03:18:18;101134.45;;;20.05;38.73
54870;BME280;40756;-37.950;145.008;2022-09-21T03:20:48;101140.30;;;19.58;38.44
54870;BME280;40756;-37.950;145.008;2022-09-21T03:23:17;101145.07;;;19.13;38.65
54870;BME280;40756;-37.950;145.008;2022-09-21T03:25:47;101146.64;;;19.39;38.65
54870;BME280;40756;-37.950;145.008;2022-09-21T03:28:16;101146.60;;;19.41;39.38
54870;BME280;40756;-37.950;145.008;2022-09-21T03:30:47;101146.85;;;19.29;38.86
54870;BME280;40756;-37.950;145.008;2022-09-21T03:33:17;101152.02;;;19.24;39.88
54870;BME280;40756;-37.950;145.008;2022-09-21T03:35:48;101157.08;;;19.30;39.67
54870;BME280;40756;-37.950;145.008;2022-09-21T03:38:18;101158.15;;;19.10;39.85
54870;BME280;40756;-37.950;145.008;2022-09-21T03:40:49;101154.61;;;19.33;40.38
54870;BME280;40756;-37.950;145.008;2022-09-21T03:43:19;101155.47;;;19.20;39.94
54870;BME280;40756;-37.950;145.008;2022-09-21T03:45:49;101161.22;;;19.56;40.38
54870;BME280;40756;-37.950;145.008;2022-09-21T03:48:19;101162.41;;;19.26;39.66
54870;BME280;40756;-37.950;145.008;2022-09-21T03:50:48;101166.50;;;19.86;39.49
54870;BME280;40756;-37.950;145.008;2022-09-21T03:53:18;101167.22;;;19.73;39.90
54870;BME280;40756;-37.950;145.008;2022-09-21T03:55:47;101166.42;;;19.75;41.11
54870;BME280;40756;-37.950;145.008;2022-09-21T03:58:17;101169.43;;;19.93;39.70
54870;BME280;40756;-37.950;145.008;2022-09-21T04:00:46;101172.55;;;19.77;40.25
54870;BME280;40756;-37.950;145.008;2022-09-21T04:03:16;101169.79;;;20.29;40.24
54870;BME280;40756;-37.950;145.008;2022-09-21T04:05:45;101166.02;;;20.42;39.76
54870;BME280;40756;-37.950;145.008;2022-09-21T04:08:15;101165.51;;;20.07;40.55
54870;BME280;40756;-37.950;145.008;2022-09-21T04:10:44;101159.40;;;20.25;39.64
54870;BME280;40756;-37.950;145.008;2022-09-21T04:13:14;101149.87;;;20.74;39.05
54870;BME280;40756;-37.950;145.008;2022-09-21T04:15:44;101146.05;;;20.74;38.28
54870;BME280;40756;-37.950;145.008;2022-09-21T04:18:13;101154.15;;;20.82;38.28
54870;BME280;40756;-37.950;145.008;2022-09-21T04:20:43;101161.78;;;21.20;38.12
54870;BME280;40756;-37.950;145.008;2022-09-21T04:23:12;101160.47;;;21.14;38.33
54870;BME280;40756;-37.950;145.008;2022-09-21T04:25:43;101159.76;;;21.31;38.24
54870;BME280;40756;-37.950;145.008;2022-09-21T04:28:12;101163.34;;;21.11;38.96
54870;BME280;40756;-37.950;145.008;2022-09-21T04:30:42;101169.60;;;21.07;38.42
54870;BME280;40756;-37.950;145.008;2022-09-21T04:33:11;101168.48;;;21.41;38.46
54870;BME280;40756;-37.950;145.008;2022-09-21T04:35:41;101171.59;;;21.46;39.01
54870;BME280;40756;-37.950;145.008;2022-09-21T04:38:11;101172.41;;;21.57;38.64
54870;BME280;40756;-37.950;145.008;2022-09-21T04:40:40;101174.71;;;21.42;39.79
54870;BME280;40756;-37.950;145.008;2022-09-21T04:43:10;101175.60;;;21.20;39.27
54870;BME280;40756;-37.950;145.008;2022-09-21T04:45:39;101173.40;;;21.27;40.78
54870;BME280;40756;-37.950;145.008;2022-09-21T04:48:09;101172.61;;;21.19;39.67
54870;BME280;40756;-37.950;145.008;2022-09-21T04:50:38;101167.07;;;20.98;39.12
54870;BME280;40756;-37.950;145.008;2022-09-21T04:53:08;101174.42;;;21.62;39.45
54870;BME280;40756;-37.950;145.008;2022-09-21T04:55:37;101171.86;;;21.69;36.69
54870;BME280;40756;-37.950;145.008;2022-09-21T04:58:07;101169.66;;;21.38;37.90
54870;BME280;40756;-37.950;145.008;2022-09-21T05:00:36;101171.99;;;21.88;37.85
54870;BME280;40756;-37.950;145.008;2022-09-21T05:03:06;101171.54;;;21.95;37.89
54870;BME280;40756;-37.950;145.008;2022-09-21T05:05:35;101171.71;;;21.72;38.52
54870;BME280;40756;-37.950;145.008;2022-09-21T05:08:05;101166.50;;;21.89;38.51
54870;BME280;40756;-37.950;145.008;2022-09-21T05:10:34;101162.41;;;21.53;37.95
54870;BME280;40756;-37.950;145.008;2022-09-21T05:13:04;101165.98;;;21.75;38.96
54870;BME280;40756;-37.950;145.008;2022-09-21T05:15:35;101164.99;;;21.84;38.69
54870;BME280;40756;-37.950;145.008;2022-09-21T05:18:04;101164.34;;;21.80;38.96
54870;BME280;40756;-37.950;145.008;2022-09-21T05:20:34;101165.72;;;21.88;38.50
54870;BME280;40756;-37.950;145.008;2022-09-21T05:23:03;101167.40;;;21.45;39.15
54870;BME280;40756;-37.950;145.008;2022-09-21T05:25:33;101166.72;;;21.56;40.88
54870;BME280;40756;-37.950;145.008;2022-09-21T05:28:03;101168.86;;;22.25;39.82
54870;BME280;40756;-37.950;145.008;2022-09-21T05:30:33;101175.45;;;22.22;39.01
54870;BME280;40756;-37.950;145.008;2022-09-21T05:33:04;101176.27;;;22.01;37.07
54870;BME280;40756;-37.950;145.008;2022-09-21T05:35:40;101175.48;;;22.14;37.31
54870;BME280;40756;-37.950;145.008;2022-09-21T05:38:14;101174.02;;;22.01;37.86
54870;BME280;40756;-37.950;145.008;2022-09-21T05:40:46;101169.87;;;22.34;38.27
54870;BME280;40756;-37.950;145.008;2022-09-21T05:43:16;101167.73;;;22.41;35.39
54870;BME280;40756;-37.950;145.008;2022-09-21T05:45:50;101167.44;;;22.42;36.28
54870;BME280;40756;-37.950;145.008;2022-09-21T05:48:25;101163.98;;;22.37;32.85
54870;BME280;40756;-37.950;145.008;2022-09-21T05:51:00;101165.72;;;22.75;31.02
54870;BME280;40756;-37.950;145.008;2022-09-21T05:53:49;101162.23;;;22.69;30.13
54870;BME280;40756;-37.950;145.008;2022-09-21T05:56:32;101158.64;;;23.19;31.38
54870;BME280;40756;-37.950;145.008;2022-09-21T05:59:11;101158.37;;;23.29;30.27
54870;BME280;40756;-37.950;145.008;2022-09-21T06:01:58;101157.95;;;23.18;30.56
54870;BME280;40756;-37.950;145.008;2022-09-21T06:04:33;101158.87;;;23.24;31.33
54870;BME280;40756;-37.950;145.008;2022-09-21T06:07:03;101160.78;;;23.37;32.55
54870;BME280;40756;-37.950;145.008;2022-09-21T06:09:32;101166.09;;;21.84;34.36
54870;BME280;40756;-37.950;145.008;2022-09-21T06:12:02;101168.76;;;21.39;33.51
54870;BME280;40756;-37.950;145.008;2022-09-21T06:14:31;101169.69;;;22.57;32.48
54870;BME280;40756;-37.950;145.008;2022-09-21T06:17:03;101174.13;;;21.88;33.60
54870;BME280;40756;-37.950;145.008;2022-09-21T06:19:32;101176.56;;;21.42;33.40
54870;BME280;40756;-37.950;145.008;2022-09-21T06:22:01;101182.77;;;21.45;33.75
54870;BME280;40756;-37.950;145.008;2022-09-21T06:24:30;101186.98;;;21.98;34.67
54870;BME280;40756;-37.950;145.008;2022-09-21T06:27:00;101192.32;;;21.28;34.13
54870;BME280;40756;-37.950;145.008;2022-09-21T06:29:30;101197.53;;;21.61;34.47
54870;BME280;40756;-37.950;145.008;2022-09-21T06:32:00;101203.50;;;21.69;35.16
54870;BME280;40756;-37.950;145.008;2022-09-21T06:34:29;101207.33;;;21.03;36.88
54870;BME280;40756;-37.950;145.008;2022-09-21T06:36:59;101210.41;;;21.19;34.65
54870;BME280;40756;-37.950;145.008;2022-09-21T06:39:28;101215.05;;;21.58;34.57
54870;BME280;40756;-37.950;145.008;2022-09-21T06:41:58;101216.56;;;21.44;34.85
54870;BME280;40756;-37.950;145.008;2022-09-21T06:44:27;101217.92;;;21.16;36.07
54870;BME280;40756;-37.950;145.008;2022-09-21T06:46:57;101223.76;;;20.88;34.29
54870;BME280;40756;-37.950;145.008;2022-09-21T06:49:26;101229.26;;;20.49;35.95
54870;BME280;40756;-37.950;145.008;2022-09-21T06:51:56;101232.45;;;20.63;36.98
54870;BME280;40756;-37.950;145.008;2022-09-21T06:54:26;101239.49;;;20.86;36.36
54870;BME280;40756;-37.950;145.008;2022-09-21T06:56:55;101242.44;;;20.61;37.03
54870;BME280;40756;-37.950;145.008;2022-09-21T06:59:24;101247.29;;;20.67;36.47
54870;BME280;40756;-37.950;145.008;2022-09-21T07:01:54;101256.31;;;19.85;36.73
54870;BME280;40756;-37.950;145.008;2022-09-21T07:04:24;101259.60;;;20.65;36.49
54870;BME280;40756;-37.950;145.008;2022-09-21T07:06:53;101258.89;;;21.04;36.07
54870;BME280;40756;-37.950;145.008;2022-09-21T07:09:23;101265.23;;;21.19;37.53
54870;BME280;40756;-37.950;145.008;2022-09-21T07:11:52;101267.81;;;20.85;37.13
54870;BME280;40756;-37.950;145.008;2022-09-21T07:14:22;101273.75;;;20.57;36.85
54870;BME280;40756;-37.950;145.008;2022-09-21T07:16:52;101280.72;;;20.63;37.21
54870;BME280;40756;-37.950;145.008;2022-09-21T07:19:22;101284.97;;;20.05;37.27
54870;BME280;40756;-37.950;145.008;2022-09-21T07:21:54;101283.81;;;20.62;35.58
54870;BME280;40756;-37.950;145.008;2022-09-21T07:24:23;101285.27;;;20.29;37.07
54870;BME280;40756;-37.950;145.008;2022-09-21T07:26:53;101289.31;;;20.11;37.35
54870;BME280;40756;-37.950;145.008;2022-09-21T07:29:22;101292.41;;;20.28;37.49
54870;BME280;40756;-37.950;145.008;2022-09-21T07:31:52;101296.08;;;19.65;39.65
54870;BME280;40756;-37.950;145.008;2022-09-21T07:34:21;101298.77;;;19.54;40.59
54870;BME280;40756;-37.950;145.008;2022-09-21T07:36:51;101297.88;;;20.05;40.87
54870;BME280;40756;-37.950;145.008;2022-09-21T07:39:20;101299.80;;;19.44;41.68
54870;BME280;40756;-37.950;145.008;2022-09-21T07:41:50;101297.88;;;19.48;41.69
54870;BME280;40756;-37.950;145.008;2022-09-21T07:44:19;101300.67;;;19.51;41.96
54870;BME280;40756;-37.950;145.008;2022-09-21T07:46:49;101300.16;;;19.35;41.98
54870;BME280;40756;-37.950;145.008;2022-09-21T07:49:19;101302.97;;;19.49;41.98
54870;BME280;40756;-37.950;145.008;2022-09-21T07:51:48;101302.61;;;19.49;42.49
54870;BME280;40756;-37.950;145.008;2022-09-21T07:54:18;101306.30;;;19.71;42.47
54870;BME280;40756;-37.950;145.008;2022-09-21T07:56:47;101308.46;;;19.68;42.41
54870;BME280;40756;-37.950;145.008;2022-09-21T07:59:17;101313.96;;;19.46;42.90
54870;BME280;40756;-37.950;145.008;2022-09-21T08:01:46;101321.03;;;19.20;43.19
54870;BME280;40756;-37.950;145.008;2022-09-21T08:04:16;101325.50;;;19.20;43.50
54870;BME280;40756;-37.950;145.008;2022-09-21T08:06:45;101325.54;;;19.51;43.32
54870;BME280;40756;-37.950;145.008;2022-09-21T08:09:15;101325.96;;;19.71;43.13
54870;BME280;40756;-37.950;145.008;2022-09-21T08:11:45;101327.05;;;19.24;43.10
54870;BME280;40756;-37.950;145.008;2022-09-21T08:14:14;101328.52;;;19.16;43.33
54870;BME280;40756;-37.950;145.008;2022-09-21T08:16:44;101327.31;;;19.15;43.18
54870;BME280;40756;-37.950;145.008;2022-09-21T08:19:14;101327.50;;;19.12;43.76
54870;BME280;40756;-37.950;145.008;2022-09-21T08:21:46;101329.22;;;19.11;43.91
54870;BME280;40756;-37.950;145.008;2022-09-21T08:24:16;101331.28;;;19.42;44.21
54870;BME280;40756;-37.950;145.008;2022-09-21T08:26:45;101328.68;;;19.16;43.43
54870;BME280;40756;-37.950;145.008;2022-09-21T08:29:15;101326.13;;;19.03;44.25
54870;BME280;40756;-37.950;145.008;2022-09-21T08:31:44;101328.49;;;19.01;44.19
54870;BME280;40756;-37.950;145.008;2022-09-21T08:34:14;101331.13;;;19.00;43.56
54870;BME280;40756;-37.950;145.008;2022-09-21T08:36:44;101331.15;;;19.07;43.98
54870;BME280;40756;-37.950;145.008;2022-09-21T08:39:13;101332.92;;;19.26;44.25
54870;BME280;40756;-37.950;145.008;2022-09-21T08:41:53;101334.57;;;19.12;44.65
54870;BME280;40756;-37.950;145.008;2022-09-21T08:44:32;101339.86;;;19.10;44.24
54870;BME280;40756;-37.950;145.008;2022-09-21T08:47:12;101342.21;;;19.03;44.67
54870;BME280;40756;-37.950;145.008;2022-09-21T08:49:48;101342.59;;;18.50;45.27
54870;BME280;40756;-37.950;145.008;2022-09-21T08:52:20;101349.15;;;18.64;45.34
54870;BME280;40756;-37.950;145.008;2022-09-21T08:54:55;101350.67;;;18.64;45.31
54870;BME280;40756;-37.950;145.008;2022-09-21T08:57:30;101352.60;;;18.79;45.75
54870;BME280;40756;-37.950;145.008;2022-09-21T09:00:05;101352.93;;;18.54;45.66
54870;BME280;40756;-37.950;145.008;2022-09-21T09:02:48;101353.71;;;18.75;45.78
54870;BME280;40756;-37.950;145.008;2022-09-21T09:05:32;101355.93;;;18.79;45.58
54870;BME280;40756;-37.950;145.008;2022-09-21T09:08:18;101359.00;;;18.83;45.63
54870;BME280;40756;-37.950;145.008;2022-09-21T09:10:59;101364.06;;;17.75;44.08
54870;BME280;40756;-37.950;145.008;2022-09-21T09:13:45;101371.02;;;18.11;44.38
54870;BME280;40756;-37.950;145.008;2022-09-21T09:16:28;101374.64;;;17.79;45.95
54870;BME280;40756;-37.950;145.008;2022-09-21T09:19:19;101377.97;;;17.38;47.53
54870;BME280;40756;-37.950;145.008;2022-09-21T09:21:52;101379.43;;;17.21;49.54
54870;BME280;40756;-37.950;145.008;2022-09-21T09:24:31;101378.30;;;17.10;49.98
54870;BME280;40756;-37.950;145.008;2022-09-21T09:27:06;101379.00;;;16.99;50.34
54870;BME280;40756;-37.950;145.008;2022-09-21T09:29:46;101382.42;;;17.08;50.19
54870;BME280;40756;-37.950;145.008;2022-09-21T09:32:28;101387.73;;;16.80;50.74
54870;BME280;40756;-37.950;145.008;2022-09-21T09:35:04;101393.01;;;16.91;50.56
54870;BME280;40756;-37.950;145.008;2022-09-21T09:37:39;101395.28;;;16.59;50.97
54870;BME280;40756;-37.950;145.008;2022-09-21T09:40:12;101394.41;;;16.78;50.52
54870;BME280;40756;-37.950;145.008;2022-09-21T09:42:49;101396.85;;;17.05;50.35
54870;BME280;40756;-37.950;145.008;2022-09-21T09:45:39;101394.37;;;17.27;50.05
54870;BME280;40756;-37.950;145.008;2022-09-21T09:48:25;101393.45;;;17.05;49.84
54870;BME280;40756;-37.950;145.008;2022-09-21T09:51:01;101394.05;;;17.02;50.01
54870;BME280;40756;-37.950;145.008;2022-09-21T09:53:30;101396.85;;;17.02;50.05
54870;BME280;40756;-37.950;145.008;2022-09-21T09:56:01;101401.27;;;17.09;49.75
54870;BME280;40756;-37.950;145.008;2022-09-21T09:58:37;101404.77;;;17.01;49.29
54870;BME280;40756;-37.950;145.008;2022-09-21T10:01:09;101406.67;;;17.30;49.20
54870;BME280;40756;-37.950;145.008;2022-09-21T10:04:07;101411.80;;;17.30;49.24
54870;BME280;40756;-37.950;145.008;2022-09-21T10:06:38;101413.15;;;17.13;49.15
54870;BME280;40756;-37.950;145.008;2022-09-21T10:09:22;101415.27;;;17.14;48.87
54870;BME280;40756;-37.950;145.008;2022-09-21T10:11:54;101418.22;;;17.40;48.29
54870;BME280;40756;-37.950;145.008;2022-09-21T10:14:25;101422.04;;;17.37;48.04
54870;BME280;40756;-37.950;145.008;2022-09-21T10:16:57;101426.68;;;17.32;48.12
54870;BME280;40756;-37.950;145.008;2022-09-21T10:19:30;101428.71;;;17.05;48.26
54870;BME280;40756;-37.950;145.008;2022-09-21T10:22:02;101430.79;;;17.00;48.28
54870;BME280;40756;-37.950;145.008;2022-09-21T10:24:34;101431.65;;;17.16;48.33
54870;BME280;40756;-37.950;145.008;2022-09-21T10:27:10;101431.74;;;17.24;48.16
54870;BME280;40756;-37.950;145.008;2022-09-21T10:29:43;101434.56;;;17.21;48.18
54870;BME280;40756;-37.950;145.008;2022-09-21T10:32:24;101437.62;;;17.03;48.53
54870;BME280;40756;-37.950;145.008;2022-09-21T10:35:19;101439.03;;;17.07;48.45
54870;BME280;40756;-37.950;145.008;2022-09-21T10:38:07;101440.24;;;16.91;48.56
54870;BME280;40756;-37.950;145.008;2022-09-21T10:40:37;101447.39;;;17.12;48.82
54870;BME280;40756;-37.950;145.008;2022-09-21T10:43:23;101448.55;;;16.79;49.08
54870;BME280;40756;-37.950;145.008;2022-09-21T10:45:55;101451.21;;;17.04;48.99
54870;BME280;40756;-37.950;145.008;2022-09-21T10:48:26;101459.15;;;17.00;48.92
54870;BME280;40756;-37.950;145.008;2022-09-21T10:50:57;101464.76;;;16.88;49.28
54870;BME280;40756;-37.950;145.008;2022-09-21T10:53:28;101467.04;;;16.61;49.45
54870;BME280;40756;-37.950;145.008;2022-09-21T10:56:00;101469.03;;;16.43;49.64
54870;BME280;40756;-37.950;145.008;2022-09-21T10:58:33;101471.31;;;16.69;49.58
54870;BME280;40756;-37.950;145.008;2022-09-21T11:01:14;101472.99;;;16.82;49.43
54870;BME280;40756;-37.950;145.008;2022-09-21T11:03:54;101475.90;;;17.05;49.51
54870;BME280;40756;-37.950;145.008;2022-09-21T11:06:29;101476.05;;;17.04;49.39
54870;BME280;40756;-37.950;145.008;2022-09-21T11:09:04;101477.84;;;16.72;49.61
54870;BME280;40756;-37.950;145.008;2022-09-21T11:11:52;101483.01;;;16.95;49.71
54870;BME280;40756;-37.950;145.008;2022-09-21T11:14:36;101481.92;;;16.70;49.77
54870;BME280;40756;-37.950;145.008;2022-09-21T11:17:16;101481.91;;;16.36;49.85
54870;BME280;40756;-37.950;145.008;2022-09-21T11:19:53;101481.01;;;16.52;50.22
54870;BME280;40756;-37.950;145.008;2022-09-21T11:22:33;101482.45;;;16.43;50.51
54870;BME280;40756;-37.950;145.008;2022-09-21T11:25:17;101485.44;;;16.20;50.35
54870;BME280;40756;-37.950;145.008;2022-09-21T11:27:55;101483.22;;;16.64;50.42
54870;BME280;40756;-37.950;145.008;2022-09-21T11:30:36;101482.85;;;16.27;50.49
54870;BME280;40756;-37.950;145.008;2022-09-21T11:33:22;101481.53;;;16.47;50.69
54870;BME280;40756;-37.950;145.008;2022-09-21T11:36:02;101481.53;;;16.45;50.76
54870;BME280;40756;-37.950;145.008;2022-09-21T11:38:42;101484.88;;;16.09;51.07
54870;BME280;40756;-37.950;145.008;2022-09-21T11:41:31;101484.67;;;16.27;51.13
54870;BME280;40756;-37.950;145.008;2022-09-21T11:44:28;101484.27;;;16.18;51.23
54870;BME280;40756;-37.950;145.008;2022-09-21T11:47:12;101485.63;;;16.41;51.33
54870;BME280;40756;-37.950;145.008;2022-09-21T11:49:59;101487.94;;;16.12;51.41
54870;BME280;40756;-37.950;145.008;2022-09-21T11:52:42;101490.61;;;16.04;51.49
54870;BME280;40756;-37.950;145.008;2022-09-21T11:55:29;101497.64;;;16.05;51.53
54870;BME280;40756;-37.950;145.008;2022-09-21T11:58:09;101495.17;;;16.02;51.61
54870;BME280;40756;-37.950;145.008;2022-09-21T12:00:48;101492.14;;;16.19;51.84
54870;BME280;40756;-37.950;145.008;2022-09-21T12:03:39;101487.45;;;15.90;51.99
54870;BME280;40756;-37.950;145.008;2022-09-21T12:06:22;101490.01;;;16.04;51.79
54870;BME280;40756;-37.950;145.008;2022-09-21T12:09:05;101491.14;;;16.10;51.82
54870;BME280;40756;-37.950;145.008;2022-09-21T12:11:41;101495.41;;;16.01;51.88
54870;BME280;40756;-37.950;145.008;2022-09-21T12:14:17;101494.22;;;16.01;51.90
54870;BME280;40756;-37.950;145.008;2022-09-21T12:16:53;101495.74;;;16.14;51.74
54870;BME280;40756;-37.950;145.008;2022-09-21T12:19:33;101497.71;;;15.97;52.05
54870;BME280;40756;-37.950;145.008;2022-09-21T12:22:10;101501.90;;;15.96;52.07
54870;BME280;40756;-37.950;145.008;2022-09-21T12:24:44;101501.59;;;16.15;52.11
54870;BME280;40756;-37.950;145.008;2022-09-21T12:27:23;101501.67;;;16.23;52.05
54870;BME280;40756;-37.950;145.008;2022-09-21T12:29:59;101501.17;;;16.06;52.25
54870;BME280;40756;-37.950;145.008;2022-09-21T12:32:45;101499.06;;;15.94;52.03
54870;BME280;40756;-37.950;145.008;2022-09-21T12:35:22;101500.07;;;15.78;52.38
54870;BME280;40756;-37.950;145.008;2022-09-21T12:37:57;101499.53;;;16.08;52.28
54870;BME280;40756;-37.950;145.008;2022-09-21T12:40:35;101502.40;;;15.94;52.28
54870;BME280;40756;-37.950;145.008;2022-09-21T12:43:15;101502.54;;;15.89;51.98
54870;BME280;40756;-37.950;145.008;2022-09-21T12:45:52;101499.17;;;16.19;51.92
54870;BME280;40756;-37.950;145.008;2022-09-21T12:48:29;101499.49;;;15.54;52.60
54870;BME280;40756;-37.950;145.008;2022-09-21T12:51:05;101495.47;;;15.75;52.56
54870;BME280;40756;-37.950;145.008;2022-09-21T12:53:36;101492.74;;;15.82;52.33
54870;BME280;40756;-37.950;145.008;2022-09-21T12:56:11;101492.27;;;15.71;52.62